Pedhoulas Trader — C4JM2 — position and weather

sailwx.info

Track history (hours):
 
Tides and Currents Weather Stations Pressure Air Temp Water Temp Dewpoint Dewpoint Depression Visibility Wind Speed Wind Dir Waves Ship Positions

Pedhoulas Trader

Last reported at 2014-Dec-07 07:33 UTC. Time now 2014-Dec-22 12:43 UTC.
Position N 33°60' E 134°59'.
Warning: this ship's position is 15 days out of date.

Length 229 m; draft 9.4 m.

Type: Cargo ship. MMSI: 210073000.

Date/timePositionNaut miles runAvg speedWind from/ knotsBaromVisibWave heightAir tempDewpointWater temp
2014-Dec-07 07:33N 33°60' E 134°59'1212.3
2014-Dec-07 06:33N 34°12' E 134°58'1313.2
2014-Dec-07 05:33N 34°25' E 135°02'1010.5
2014-Dec-07 04:33N 34°35' E 135°04'1313.0
2014-Dec-07 03:33N 34°33' E 134°49'7 0.2
2014-Dec-05 21:04N 34°37' E 134°41'611.7
2014-Dec-05 20:33N 34°41' E 134°47'1 0.8
2014-Dec-05 19:20N 34°41' E 134°48'0 0.0
2014-Dec-05 18:26N 34°41' E 134°48'0 0.0
2014-Dec-05 17:20N 34°41' E 134°48'0 0.0
2014-Dec-05 16:20N 34°41' E 134°48'0 0.0
2014-Dec-05 15:32N 34°41' E 134°48'0 0.0
2014-Dec-05 14:32N 34°41' E 134°48'0 0.0
2014-Dec-05 13:32N 34°41' E 134°48'0 0.0
2014-Dec-05 12:32N 34°41' E 134°48'0 0.0
2014-Dec-05 11:20N 34°41' E 134°48'0 0.1
2014-Dec-05 10:32N 34°41' E 134°48'0 0.0
2014-Dec-05 09:14N 34°41' E 134°48'0 0.0
2014-Dec-05 08:26N 34°41' E 134°48'0 0.0
2014-Dec-05 06:26N 34°41' E 134°48'0 0.0
2014-Dec-05 05:32N 34°41' E 134°48'2 2.1
2014-Dec-05 04:27N 34°42' E 134°50'1 0.1
2014-Dec-04 22:16N 34°43' E 134°50'0 0.0
2014-Dec-04 18:28N 34°43' E 134°50'0 0.0
2014-Dec-04 17:28N 34°43' E 134°50'0 0.0
2014-Dec-04 16:28N 34°43' E 134°50'0 0.0
2014-Dec-04 15:28N 34°43' E 134°50'0 0.0
2014-Dec-04 14:16N 34°43' E 134°50'0 0.0
2014-Dec-04 13:22N 34°43' E 134°50'0 0.0
2014-Dec-04 12:28N 34°43' E 134°50'0 0.0
2014-Dec-04 11:22N 34°43' E 134°50'0 0.0
2014-Dec-04 10:22N 34°43' E 134°50'0 0.0
2014-Dec-04 09:22N 34°43' E 134°50'0 0.0
2014-Dec-04 06:28N 34°43' E 134°50'0 0.0
2014-Dec-04 05:28N 34°43' E 134°50'0 0.0
2014-Dec-04 01:28N 34°43' E 134°50'0 0.0
2014-Dec-01 23:22N 34°43' E 134°50'0 0.0
2014-Dec-01 05:33N 34°43' E 134°50'4 4.1
2014-Dec-01 04:33N 34°40' E 134°47'6 5.7
2014-Dec-01 03:29N 34°34' E 134°46'1110.5
2014-Dec-01 02:27N 34°37' E 134°58'7 8.4
2014-Dec-01 01:33N 34°35' E 135°07'8 7.6
2014-Dec-01 00:33N 34°27' E 135°06'1110.6
2014-Nov-30 23:33N 34°18' E 134°59'10 9.9
2014-Nov-30 22:33N 34°08' E 134°59'9 8.9
2014-Nov-30 21:33N 33°59' E 134°58'  
Track history (hours):
 
Tides and Currents Weather Stations Pressure Air Temp Water Temp Dewpoint Dewpoint Depression Visibility Wind Speed Wind Dir Waves Ship Positions

Pedhoulas Trader

Last reported at 2014-Dec-07 07:33 UTC. Time now 2014-Dec-22 12:43 UTC.
Position N 33°60' E 134°59'.
Warning: this ship's position is 15 days out of date.

Length 229 m; draft 9.4 m.

Type: Cargo ship. MMSI: 210073000.

Date/timePositionNaut miles runAvg speedWind from/ knotsBaromVisibWave heightAir tempDewpointWater temp
2014-Dec-07 07:33N 33°60' E 134°59'1212.3
2014-Dec-07 06:33N 34°12' E 134°58'1313.2
2014-Dec-07 05:33N 34°25' E 135°02'1010.5
2014-Dec-07 04:33N 34°35' E 135°04'1313.0
2014-Dec-07 03:33N 34°33' E 134°49'7 0.2
2014-Dec-05 21:04N 34°37' E 134°41'611.7
2014-Dec-05 20:33N 34°41' E 134°47'1 0.8
2014-Dec-05 19:20N 34°41' E 134°48'0 0.0
2014-Dec-05 18:26N 34°41' E 134°48'0 0.0
2014-Dec-05 17:20N 34°41' E 134°48'0 0.0
2014-Dec-05 16:20N 34°41' E 134°48'0 0.0
2014-Dec-05 15:32N 34°41' E 134°48'0 0.0
2014-Dec-05 14:32N 34°41' E 134°48'0 0.0
2014-Dec-05 13:32N 34°41' E 134°48'0 0.0
2014-Dec-05 12:32N 34°41' E 134°48'0 0.0
2014-Dec-05 11:20N 34°41' E 134°48'0 0.1
2014-Dec-05 10:32N 34°41' E 134°48'0 0.0
2014-Dec-05 09:14N 34°41' E 134°48'0 0.0
2014-Dec-05 08:26N 34°41' E 134°48'0 0.0
2014-Dec-05 06:26N 34°41' E 134°48'0 0.0
2014-Dec-05 05:32N 34°41' E 134°48'2 2.1
2014-Dec-05 04:27N 34°42' E 134°50'1 0.1
2014-Dec-04 22:16N 34°43' E 134°50'0 0.0
2014-Dec-04 18:28N 34°43' E 134°50'0 0.0
2014-Dec-04 17:28N 34°43' E 134°50'0 0.0
2014-Dec-04 16:28N 34°43' E 134°50'0 0.0
2014-Dec-04 15:28N 34°43' E 134°50'0 0.0
2014-Dec-04 14:16N 34°43' E 134°50'0 0.0
2014-Dec-04 13:22N 34°43' E 134°50'0 0.0
2014-Dec-04 12:28N 34°43' E 134°50'0 0.0
2014-Dec-04 11:22N 34°43' E 134°50'0 0.0
2014-Dec-04 10:22N 34°43' E 134°50'0 0.0
2014-Dec-04 09:22N 34°43' E 134°50'0 0.0
2014-Dec-04 06:28N 34°43' E 134°50'0 0.0
2014-Dec-04 05:28N 34°43' E 134°50'0 0.0
2014-Dec-04 01:28N 34°43' E 134°50'0 0.0
2014-Dec-01 23:22N 34°43' E 134°50'0 0.0
2014-Dec-01 05:33N 34°43' E 134°50'4 4.1
2014-Dec-01 04:33N 34°40' E 134°47'6 5.7
2014-Dec-01 03:29N 34°34' E 134°46'1110.5
2014-Dec-01 02:27N 34°37' E 134°58'7 8.4
2014-Dec-01 01:33N 34°35' E 135°07'8 7.6
2014-Dec-01 00:33N 34°27' E 135°06'1110.6
2014-Nov-30 23:33N 34°18' E 134°59'10 9.9
2014-Nov-30 22:33N 34°08' E 134°59'9 8.9
2014-Nov-30 21:33N 33°59' E 134°58'  

Dump ship's entire track history